sensor_id;sensor_type;location;lat;lon;timestamp;pressure;altitude;pressure_sealevel;temperature;humidity
83635;BME280;73596;49.482;11.238;2023-11-21T00:00:42;97476.75;;;7.01;90.90
83635;BME280;73596;49.482;11.238;2023-11-21T00:03:07;97468.53;;;6.96;91.15
83635;BME280;73596;49.482;11.238;2023-11-21T00:05:32;97478.50;;;7.00;91.58
83635;BME280;73596;49.482;11.238;2023-11-21T00:07:58;97470.81;;;7.00;91.80
83635;BME280;73596;49.482;11.238;2023-11-21T00:10:23;97465.69;;;7.00;91.27
83635;BME280;73596;49.482;11.238;2023-11-21T00:12:48;97464.84;;;7.00;90.71
83635;BME280;73596;49.482;11.238;2023-11-21T00:15:14;97472.44;;;7.01;90.75
83635;BME280;73596;49.482;11.238;2023-11-21T00:17:39;97467.31;;;7.01;91.47
83635;BME280;73596;49.482;11.238;2023-11-21T00:20:07;97468.97;;;7.02;91.72
83635;BME280;73596;49.482;11.238;2023-11-21T00:22:36;97469.88;;;7.01;90.65
83635;BME280;73596;49.482;11.238;2023-11-21T00:25:02;97469.78;;;7.03;90.68
83635;BME280;73596;49.482;11.238;2023-11-21T00:27:29;97465.34;;;7.05;90.76
83635;BME280;73596;49.482;11.238;2023-11-21T00:29:54;97468.84;;;7.04;91.72
83635;BME280;73596;49.482;11.238;2023-11-21T00:32:19;97474.09;;;7.02;91.88
83635;BME280;73596;49.482;11.238;2023-11-21T00:34:44;97473.25;;;7.02;91.27
83635;BME280;73596;49.482;11.238;2023-11-21T00:37:09;97470.06;;;6.98;92.00
83635;BME280;73596;49.482;11.238;2023-11-21T00:39:35;97467.59;;;6.97;91.66
83635;BME280;73596;49.482;11.238;2023-11-21T00:42:00;97466.78;;;6.96;91.44
83635;BME280;73596;49.482;11.238;2023-11-21T00:44:25;97459.00;;;6.98;91.03
83635;BME280;73596;49.482;11.238;2023-11-21T00:46:50;97469.16;;;6.99;91.25
83635;BME280;73596;49.482;11.238;2023-11-21T00:49:16;97459.72;;;7.00;91.25
83635;BME280;73596;49.482;11.238;2023-11-21T00:51:41;97462.16;;;7.01;91.35
83635;BME280;73596;49.482;11.238;2023-11-21T00:54:07;97456.00;;;7.04;90.44
83635;BME280;73596;49.482;11.238;2023-11-21T00:56:32;97460.22;;;7.05;90.70
83635;BME280;73596;49.482;11.238;2023-11-21T00:58:57;97463.63;;;7.06;90.47
83635;BME280;73596;49.482;11.238;2023-11-21T01:01:22;97457.53;;;7.07;90.60
83635;BME280;73596;49.482;11.238;2023-11-21T01:03:48;97458.38;;;7.07;89.93
83635;BME280;73596;49.482;11.238;2023-11-21T01:06:14;97455.81;;;7.07;90.60
83635;BME280;73596;49.482;11.238;2023-11-21T01:08:40;97462.59;;;7.08;90.07
83635;BME280;73596;49.482;11.238;2023-11-21T01:11:05;97457.47;;;7.08;90.22
83635;BME280;73596;49.482;11.238;2023-11-21T01:13:33;97465.97;;;7.09;89.80
83635;BME280;73596;49.482;11.238;2023-11-21T01:15:58;97456.44;;;7.11;90.39
83635;BME280;73596;49.482;11.238;2023-11-21T01:18:24;97456.44;;;7.11;89.72
83635;BME280;73596;49.482;11.238;2023-11-21T01:20:51;97459.19;;;7.08;89.93
83635;BME280;73596;49.482;11.238;2023-11-21T01:23:17;97454.97;;;7.07;90.06
83635;BME280;73596;49.482;11.238;2023-11-21T01:25:43;97455.81;;;7.07;90.49
83635;BME280;73596;49.482;11.238;2023-11-21T01:28:08;97461.78;;;7.08;90.67
83635;BME280;73596;49.482;11.238;2023-11-21T01:30:33;97465.69;;;7.00;91.26
83635;BME280;73596;49.482;11.238;2023-11-21T01:32:58;97470.28;;;6.95;92.16
83635;BME280;73596;49.482;11.238;2023-11-21T01:35:24;97465.34;;;6.92;92.66
83635;BME280;73596;49.482;11.238;2023-11-21T01:37:49;97462.16;;;6.89;92.90
83635;BME280;73596;49.482;11.238;2023-11-21T01:40:14;97460.41;;;6.89;92.59
83635;BME280;73596;49.482;11.238;2023-11-21T01:42:41;97460.22;;;6.92;91.90
83635;BME280;73596;49.482;11.238;2023-11-21T01:45:07;97465.34;;;6.92;92.41
83635;BME280;73596;49.482;11.238;2023-11-21T01:47:33;97467.09;;;6.92;92.57
83635;BME280;73596;49.482;11.238;2023-11-21T01:49:59;97462.06;;;6.90;92.19
83635;BME280;73596;49.482;11.238;2023-11-21T01:52:25;97460.41;;;6.89;92.58
83635;BME280;73596;49.482;11.238;2023-11-21T01:54:50;97465.34;;;6.92;91.63
83635;BME280;73596;49.482;11.238;2023-11-21T01:57:17;97460.09;;;6.94;91.28
83635;BME280;73596;49.482;11.238;2023-11-21T01:59:42;97460.94;;;6.94;91.60
83635;BME280;73596;49.482;11.238;2023-11-21T02:02:10;97447.91;;;6.97;91.48
83635;BME280;73596;49.482;11.238;2023-11-21T02:04:36;97452.84;;;7.00;91.21
83635;BME280;73596;49.482;11.238;2023-11-21T02:07:03;97461.25;;;7.02;91.31
83635;BME280;73596;49.482;11.238;2023-11-21T02:09:32;97456.13;;;7.02;91.50
83635;BME280;73596;49.482;11.238;2023-11-21T02:12:03;97455.50;;;6.99;91.37
83635;BME280;73596;49.482;11.238;2023-11-21T02:14:29;97451.50;;;6.95;91.27
83635;BME280;73596;49.482;11.238;2023-11-21T02:16:55;97451.50;;;6.95;91.98
83635;BME280;73596;49.482;11.238;2023-11-21T02:19:22;97453.22;;;6.94;91.87
83635;BME280;73596;49.482;11.238;2023-11-21T02:21:51;97444.69;;;6.94;91.91
83635;BME280;73596;49.482;11.238;2023-11-21T02:24:19;97447.28;;;6.94;92.44
83635;BME280;73596;49.482;11.238;2023-11-21T02:26:44;97442.25;;;6.92;91.70
83635;BME280;73596;49.482;11.238;2023-11-21T02:29:11;97440.59;;;6.91;91.62
83635;BME280;73596;49.482;11.238;2023-11-21T02:31:37;97445.66;;;6.93;91.34
83635;BME280;73596;49.482;11.238;2023-11-21T02:34:11;97444.69;;;6.94;91.35
83635;BME280;73596;49.482;11.238;2023-11-21T02:36:38;97446.56;;;6.92;91.13
83635;BME280;73596;49.482;11.238;2023-11-21T02:39:03;97443.16;;;6.91;91.05
83635;BME280;73596;49.482;11.238;2023-11-21T02:41:29;97440.59;;;6.91;90.73
83635;BME280;73596;49.482;11.238;2023-11-21T02:43:54;97440.59;;;6.91;91.62
83635;BME280;73596;49.482;11.238;2023-11-21T02:46:19;97442.34;;;6.91;91.64
83635;BME280;73596;49.482;11.238;2023-11-21T02:48:44;97439.78;;;6.91;91.35
83635;BME280;73596;49.482;11.238;2023-11-21T02:51:10;97447.47;;;6.91;91.44
83635;BME280;73596;49.482;11.238;2023-11-21T02:53:35;97439.69;;;6.92;91.26
83635;BME280;73596;49.482;11.238;2023-11-21T02:56:00;97435.25;;;6.94;90.44
83635;BME280;73596;49.482;11.238;2023-11-21T02:58:26;97430.84;;;6.96;90.95
83635;BME280;73596;49.482;11.238;2023-11-21T03:00:51;97432.50;;;6.97;90.57
83635;BME280;73596;49.482;11.238;2023-11-21T03:03:17;97424.69;;;6.99;90.76
83635;BME280;73596;49.482;11.238;2023-11-21T03:05:42;97430.84;;;6.96;90.88
83635;BME280;73596;49.482;11.238;2023-11-21T03:08:08;97437.00;;;6.94;91.40
83635;BME280;73596;49.482;11.238;2023-11-21T03:10:33;97426.84;;;6.92;91.38
83635;BME280;73596;49.482;11.238;2023-11-21T03:12:58;97429.63;;;6.89;91.64
83635;BME280;73596;49.482;11.238;2023-11-21T03:15:23;97434.34;;;6.83;92.27
83635;BME280;73596;49.482;11.238;2023-11-21T03:17:49;97436.28;;;6.79;92.08
83635;BME280;73596;49.482;11.238;2023-11-21T03:20:15;97436.41;;;6.78;92.47
83635;BME280;73596;49.482;11.238;2023-11-21T03:22:41;97439.88;;;6.77;92.53
83635;BME280;73596;49.482;11.238;2023-11-21T03:25:07;97439.97;;;6.75;93.01
83635;BME280;73596;49.482;11.238;2023-11-21T03:27:35;97440.78;;;6.76;93.04
83635;BME280;73596;49.482;11.238;2023-11-21T03:30:00;97442.44;;;6.77;92.42
83635;BME280;73596;49.482;11.238;2023-11-21T03:32:26;97442.56;;;6.75;92.23
83635;BME280;73596;49.482;11.238;2023-11-21T03:34:56;97432.38;;;6.74;92.50
83635;BME280;73596;49.482;11.238;2023-11-21T03:37:22;97434.34;;;6.70;93.27
83635;BME280;73596;49.482;11.238;2023-11-21T03:39:47;97435.13;;;6.71;92.32
83635;BME280;73596;49.482;11.238;2023-11-21T03:42:12;97431.66;;;6.72;92.15
83635;BME280;73596;49.482;11.238;2023-11-21T03:44:38;97434.03;;;6.75;92.11
83635;BME280;73596;49.482;11.238;2023-11-21T03:47:03;97437.09;;;6.80;92.01
83635;BME280;73596;49.482;11.238;2023-11-21T03:49:28;97444.69;;;6.81;91.81
83635;BME280;73596;49.482;11.238;2023-11-21T03:51:54;97448.09;;;6.82;92.06
83635;BME280;73596;49.482;11.238;2023-11-21T03:54:19;97443.88;;;6.81;92.34
83635;BME280;73596;49.482;11.238;2023-11-21T03:56:45;97447.25;;;6.81;92.09
83635;BME280;73596;49.482;11.238;2023-11-21T03:59:10;97445.72;;;6.79;92.33
83635;BME280;73596;49.482;11.238;2023-11-21T04:01:35;97443.25;;;6.77;92.92
83635;BME280;73596;49.482;11.238;2023-11-21T04:04:01;97445.13;;;6.75;92.75
83635;BME280;73596;49.482;11.238;2023-11-21T04:06:26;97445.13;;;6.75;91.91
83635;BME280;73596;49.482;11.238;2023-11-21T04:08:51;97444.19;;;6.76;92.24
83635;BME280;73596;49.482;11.238;2023-11-21T04:11:16;97447.69;;;6.75;92.17
83635;BME280;73596;49.482;11.238;2023-11-21T04:13:42;97439.03;;;6.76;92.49
83635;BME280;73596;49.482;11.238;2023-11-21T04:16:08;97437.41;;;6.75;92.02
83635;BME280;73596;49.482;11.238;2023-11-21T04:18:36;97431.34;;;6.76;92.49
83635;BME280;73596;49.482;11.238;2023-11-21T04:21:02;97437.19;;;6.78;91.97
83635;BME280;73596;49.482;11.238;2023-11-21T04:23:29;97442.25;;;6.80;91.73
83635;BME280;73596;49.482;11.238;2023-11-21T04:25:55;97437.94;;;6.80;92.43
83635;BME280;73596;49.482;11.238;2023-11-21T04:28:22;97442.31;;;6.78;91.98
83635;BME280;73596;49.482;11.238;2023-11-21T04:30:47;97439.69;;;6.80;92.19
83635;BME280;73596;49.482;11.238;2023-11-21T04:33:13;97443.16;;;6.79;91.97
83635;BME280;73596;49.482;11.238;2023-11-21T04:35:38;97448.28;;;6.79;91.81
83635;BME280;73596;49.482;11.238;2023-11-21T04:38:03;97446.44;;;6.81;91.71
83635;BME280;73596;49.482;11.238;2023-11-21T04:40:28;97455.06;;;6.80;92.55
83635;BME280;73596;49.482;11.238;2023-11-21T04:42:54;97460.28;;;6.78;92.86
83635;BME280;73596;49.482;11.238;2023-11-21T04:45:19;97459.50;;;6.78;93.07
83635;BME280;73596;49.482;11.238;2023-11-21T04:47:44;97459.50;;;6.78;93.16
83635;BME280;73596;49.482;11.238;2023-11-21T04:50:10;97457.94;;;6.75;92.90
83635;BME280;73596;49.482;11.238;2023-11-21T04:52:35;97462.97;;;6.77;92.59
83635;BME280;73596;49.482;11.238;2023-11-21T04:55:01;97466.44;;;6.76;92.94
83635;BME280;73596;49.482;11.238;2023-11-21T04:57:27;97463.88;;;6.76;92.11
83635;BME280;73596;49.482;11.238;2023-11-21T04:59:53;97463.78;;;6.77;92.25
83635;BME280;73596;49.482;11.238;2023-11-21T05:02:19;97469.66;;;6.79;92.60
83635;BME280;73596;49.482;11.238;2023-11-21T05:04:44;97462.78;;;6.80;92.54
83635;BME280;73596;49.482;11.238;2023-11-21T05:07:10;97466.16;;;6.80;92.44
83635;BME280;73596;49.482;11.238;2023-11-21T05:09:35;97463.50;;;6.82;92.64
83635;BME280;73596;49.482;11.238;2023-11-21T05:12:01;97462.78;;;6.80;92.90
83635;BME280;73596;49.482;11.238;2023-11-21T05:14:26;97464.63;;;6.78;92.37
83635;BME280;73596;49.482;11.238;2023-11-21T05:16:52;97470.56;;;6.78;92.30
83635;BME280;73596;49.482;11.238;2023-11-21T05:19:17;97477.34;;;6.79;92.41
83635;BME280;73596;49.482;11.238;2023-11-21T05:21:42;97475.50;;;6.81;91.59
83635;BME280;73596;49.482;11.238;2023-11-21T05:24:08;97473.75;;;6.82;92.28
83635;BME280;73596;49.482;11.238;2023-11-21T05:26:33;97481.47;;;6.82;93.19
83635;BME280;73596;49.482;11.238;2023-11-21T05:28:59;97481.66;;;6.79;93.08
83635;BME280;73596;49.482;11.238;2023-11-21T05:31:24;97485.16;;;6.78;93.35
83635;BME280;73596;49.482;11.238;2023-11-21T05:33:49;97486.25;;;6.74;93.74
83635;BME280;73596;49.482;11.238;2023-11-21T05:36:14;97493.97;;;6.74;93.90
83635;BME280;73596;49.482;11.238;2023-11-21T05:38:40;97490.56;;;6.73;93.21
83635;BME280;73596;49.482;11.238;2023-11-21T05:41:06;97498.19;;;6.75;92.70
83635;BME280;73596;49.482;11.238;2023-11-21T05:43:32;97498.06;;;6.76;93.10
83635;BME280;73596;49.482;11.238;2023-11-21T05:46:00;97497.16;;;6.77;91.96
83635;BME280;73596;49.482;11.238;2023-11-21T05:48:25;97504.66;;;6.80;92.34
83635;BME280;73596;49.482;11.238;2023-11-21T05:50:50;97502.00;;;6.82;91.97
83635;BME280;73596;49.482;11.238;2023-11-21T05:53:16;97507.84;;;6.84;91.66
83635;BME280;73596;49.482;11.238;2023-11-21T05:55:41;97504.44;;;6.83;92.23
83635;BME280;73596;49.482;11.238;2023-11-21T05:58:07;97501.09;;;6.83;91.88
83635;BME280;73596;49.482;11.238;2023-11-21T06:00:32;97497.56;;;6.84;91.86
83635;BME280;73596;49.482;11.238;2023-11-21T06:02:58;97498.59;;;6.81;92.17
83635;BME280;73596;49.482;11.238;2023-11-21T06:05:25;97501.16;;;6.81;91.96
83635;BME280;73596;49.482;11.238;2023-11-21T06:07:51;97506.22;;;6.83;91.51
83635;BME280;73596;49.482;11.238;2023-11-21T06:10:19;97510.53;;;6.82;91.71
83635;BME280;73596;49.482;11.238;2023-11-21T06:12:44;97510.59;;;6.81;92.64
83635;BME280;73596;49.482;11.238;2023-11-21T06:15:10;97528.69;;;6.79;93.05
83635;BME280;73596;49.482;11.238;2023-11-21T06:17:39;97522.72;;;6.79;93.00
83635;BME280;73596;49.482;11.238;2023-11-21T06:20:06;97527.03;;;6.78;92.58
83635;BME280;73596;49.482;11.238;2023-11-21T06:22:38;97528.69;;;6.79;92.39
83635;BME280;73596;49.482;11.238;2023-11-21T06:25:04;97531.25;;;6.79;92.17
83635;BME280;73596;49.482;11.238;2023-11-21T06:27:34;97516.69;;;6.80;91.85
83635;BME280;73596;49.482;11.238;2023-11-21T06:30:00;97513.97;;;6.69;92.97
83635;BME280;73596;49.482;11.238;2023-11-21T06:32:25;97522.38;;;6.31;92.54
83635;BME280;73596;49.482;11.238;2023-11-21T06:34:51;97527.25;;;6.08;92.81
83635;BME280;73596;49.482;11.238;2023-11-21T06:37:19;97528.75;;;5.98;93.26
83635;BME280;73596;49.482;11.238;2023-11-21T06:39:48;97528.50;;;5.88;94.13
83635;BME280;73596;49.482;11.238;2023-11-21T06:42:13;97529.84;;;5.79;94.22
83635;BME280;73596;49.482;11.238;2023-11-21T06:44:40;97536.72;;;5.79;94.49
83635;BME280;73596;49.482;11.238;2023-11-21T06:47:06;97545.50;;;5.75;94.42
83635;BME280;73596;49.482;11.238;2023-11-21T06:49:32;97538.75;;;5.74;94.79
83635;BME280;73596;49.482;11.238;2023-11-21T06:51:57;97543.22;;;5.70;95.01
83635;BME280;73596;49.482;11.238;2023-11-21T06:54:23;97545.06;;;5.68;94.89
83635;BME280;73596;49.482;11.238;2023-11-21T06:56:49;97550.81;;;5.72;95.81
83635;BME280;73596;49.482;11.238;2023-11-21T06:59:15;97552.00;;;5.66;95.31
83635;BME280;73596;49.482;11.238;2023-11-21T07:01:40;97550.63;;;5.61;95.67
83635;BME280;73596;49.482;11.238;2023-11-21T07:04:06;97552.38;;;5.60;95.97
83635;BME280;73596;49.482;11.238;2023-11-21T07:06:32;97562.34;;;5.65;96.37
83635;BME280;73596;49.482;11.238;2023-11-21T07:08:58;97562.72;;;5.87;96.33
83635;BME280;73596;49.482;11.238;2023-11-21T07:11:23;97563.09;;;5.95;97.30
83635;BME280;73596;49.482;11.238;2023-11-21T07:13:49;97576.38;;;6.02;96.74
83635;BME280;73596;49.482;11.238;2023-11-21T07:16:14;97573.53;;;6.06;97.19
83635;BME280;73596;49.482;11.238;2023-11-21T07:18:40;97578.19;;;6.14;96.55
83635;BME280;73596;49.482;11.238;2023-11-21T07:21:06;97581.19;;;6.20;96.99
83635;BME280;73596;49.482;11.238;2023-11-21T07:23:31;97575.88;;;6.23;97.09
83635;BME280;73596;49.482;11.238;2023-11-21T07:25:57;97578.88;;;6.30;96.83
83635;BME280;73596;49.482;11.238;2023-11-21T07:28:24;97591.22;;;6.37;96.40
83635;BME280;73596;49.482;11.238;2023-11-21T07:30:50;97585.81;;;6.42;96.28
83635;BME280;73596;49.482;11.238;2023-11-21T07:33:16;97594.13;;;6.46;96.25
83635;BME280;73596;49.482;11.238;2023-11-21T07:35:42;97598.25;;;6.48;96.09
83635;BME280;73596;49.482;11.238;2023-11-21T07:38:07;97597.22;;;6.51;96.01
83635;BME280;73596;49.482;11.238;2023-11-21T07:40:33;97599.63;;;6.54;96.14
83635;BME280;73596;49.482;11.238;2023-11-21T07:42:58;97611.34;;;6.58;95.93
83635;BME280;73596;49.482;11.238;2023-11-21T07:45:24;97605.22;;;6.60;95.93
83635;BME280;73596;49.482;11.238;2023-11-21T07:47:52;97608.50;;;6.62;95.86
83635;BME280;73596;49.482;11.238;2023-11-21T07:50:18;97609.09;;;6.66;95.58
83635;BME280;73596;49.482;11.238;2023-11-21T07:52:45;97611.41;;;6.70;95.10
83635;BME280;73596;49.482;11.238;2023-11-21T07:55:12;97607.00;;;6.72;95.07
83635;BME280;73596;49.482;11.238;2023-11-21T07:57:38;97610.81;;;6.79;94.88
83635;BME280;73596;49.482;11.238;2023-11-21T08:00:05;97608.97;;;6.81;94.35
83635;BME280;73596;49.482;11.238;2023-11-21T08:02:34;97602.81;;;6.84;94.33
83635;BME280;73596;49.482;11.238;2023-11-21T08:04:59;97611.22;;;6.86;93.92
83635;BME280;73596;49.482;11.238;2023-11-21T08:07:25;97615.34;;;6.88;93.56
83635;BME280;73596;49.482;11.238;2023-11-21T08:09:51;97620.22;;;6.93;93.96
83635;BME280;73596;49.482;11.238;2023-11-21T08:12:16;97620.09;;;6.94;93.80
83635;BME280;73596;49.482;11.238;2023-11-21T08:14:42;97616.63;;;6.95;93.40
83635;BME280;73596;49.482;11.238;2023-11-21T08:17:09;97616.53;;;6.97;93.48
83635;BME280;73596;49.482;11.238;2023-11-21T08:19:35;97616.41;;;6.98;93.42
83635;BME280;73596;49.482;11.238;2023-11-21T08:22:02;97618.78;;;7.01;93.20
83635;BME280;73596;49.482;11.238;2023-11-21T08:24:27;97627.22;;;7.03;94.17
83635;BME280;73596;49.482;11.238;2023-11-21T08:26:52;97617.75;;;7.04;93.52
83635;BME280;73596;49.482;11.238;2023-11-21T08:29:19;97626.31;;;7.04;93.76
83635;BME280;73596;49.482;11.238;2023-11-21T08:31:45;97624.38;;;7.08;94.07
83635;BME280;73596;49.482;11.238;2023-11-21T08:34:12;97620.84;;;7.09;94.02
83635;BME280;73596;49.482;11.238;2023-11-21T08:36:43;97618.44;;;6.93;93.99
83635;BME280;73596;49.482;11.238;2023-11-21T08:39:09;97624.13;;;6.72;93.00
83635;BME280;73596;49.482;11.238;2023-11-21T08:41:35;97625.38;;;6.52;93.39
83635;BME280;73596;49.482;11.238;2023-11-21T08:44:02;97628.31;;;6.46;93.70
83635;BME280;73596;49.482;11.238;2023-11-21T08:46:27;97630.16;;;6.44;94.57
83635;BME280;73596;49.482;11.238;2023-11-21T08:48:52;97637.91;;;6.43;95.28
83635;BME280;73596;49.482;11.238;2023-11-21T08:51:18;97630.22;;;6.43;94.60
83635;BME280;73596;49.482;11.238;2023-11-21T08:53:43;97640.97;;;6.35;94.79
83635;BME280;73596;49.482;11.238;2023-11-21T08:56:15;97644.81;;;6.42;95.93
83635;BME280;73596;49.482;11.238;2023-11-21T08:58:40;97641.38;;;6.56;95.35
83635;BME280;73596;49.482;11.238;2023-11-21T09:01:06;97648.97;;;6.71;95.87
83635;BME280;73596;49.482;11.238;2023-11-21T09:03:32;97651.22;;;6.76;96.31
83635;BME280;73596;49.482;11.238;2023-11-21T09:05:59;97655.16;;;6.81;96.18
83635;BME280;73596;49.482;11.238;2023-11-21T09:08:25;97661.56;;;6.88;95.97
83635;BME280;73596;49.482;11.238;2023-11-21T09:10:50;97665.31;;;6.97;96.06
83635;BME280;73596;49.482;11.238;2023-11-21T09:13:15;97674.56;;;6.99;95.78
83635;BME280;73596;49.482;11.238;2023-11-21T09:15:42;97667.56;;;7.01;95.76
83635;BME280;73596;49.482;11.238;2023-11-21T09:18:14;97669.13;;;7.04;95.04
83635;BME280;73596;49.482;11.238;2023-11-21T09:20:40;97675.81;;;7.07;95.11
83635;BME280;73596;49.482;11.238;2023-11-21T09:23:05;97675.63;;;7.10;95.12
83635;BME280;73596;49.482;11.238;2023-11-21T09:25:32;97686.63;;;7.12;94.57
83635;BME280;73596;49.482;11.238;2023-11-21T09:27:57;97678.72;;;7.15;94.73
83635;BME280;73596;49.482;11.238;2023-11-21T09:30:23;97682.72;;;7.19;94.14
83635;BME280;73596;49.482;11.238;2023-11-21T09:32:50;97689.34;;;7.23;94.73
83635;BME280;73596;49.482;11.238;2023-11-21T09:35:15;97677.94;;;7.27;94.62
83635;BME280;73596;49.482;11.238;2023-11-21T09:37:43;97683.59;;;7.32;94.23
83635;BME280;73596;49.482;11.238;2023-11-21T09:40:10;97681.66;;;7.35;94.32
83635;BME280;73596;49.482;11.238;2023-11-21T09:42:40;97684.13;;;7.37;93.63
83635;BME280;73596;49.482;11.238;2023-11-21T09:45:18;97693.28;;;7.41;94.19
83635;BME280;73596;49.482;11.238;2023-11-21T09:47:46;97693.06;;;7.44;93.68
83635;BME280;73596;49.482;11.238;2023-11-21T09:50:16;97693.59;;;7.49;93.53
83635;BME280;73596;49.482;11.238;2023-11-21T09:52:55;97695.97;;;7.52;94.12
83635;BME280;73596;49.482;11.238;2023-11-21T09:55:25;97683.75;;;7.55;93.92
83635;BME280;73596;49.482;11.238;2023-11-21T09:57:52;97690.16;;;7.62;93.50
83635;BME280;73596;49.482;11.238;2023-11-21T10:00:18;97687.19;;;7.68;93.25
83635;BME280;73596;49.482;11.238;2023-11-21T10:02:45;97682.75;;;7.71;93.69
83635;BME280;73596;49.482;11.238;2023-11-21T10:05:13;97682.66;;;7.72;93.48
83635;BME280;73596;49.482;11.238;2023-11-21T10:07:39;97683.28;;;7.76;93.44
83635;BME280;73596;49.482;11.238;2023-11-21T10:10:07;97679.56;;;7.80;93.51
83635;BME280;73596;49.482;11.238;2023-11-21T10:12:35;97681.22;;;7.81;92.74
83635;BME280;73596;49.482;11.238;2023-11-21T10:15:02;97683.81;;;7.81;91.51
83635;BME280;73596;49.482;11.238;2023-11-21T10:17:31;97687.09;;;7.83;91.95
83635;BME280;73596;49.482;11.238;2023-11-21T10:20:05;97686.06;;;7.85;91.96
83635;BME280;73596;49.482;11.238;2023-11-21T10:22:38;97691.84;;;7.89;91.31
83635;BME280;73596;49.482;11.238;2023-11-21T10:25:04;97684.72;;;7.92;90.81
83635;BME280;73596;49.482;11.238;2023-11-21T10:27:33;97679.81;;;7.89;90.85
83635;BME280;73596;49.482;11.238;2023-11-21T10:30:00;97686.50;;;7.92;90.24
83635;BME280;73596;49.482;11.238;2023-11-21T10:32:29;97686.19;;;7.96;91.67
83635;BME280;73596;49.482;11.238;2023-11-21T10:34:57;97680.94;;;7.98;90.97
83635;BME280;73596;49.482;11.238;2023-11-21T10:37:23;97686.91;;;7.98;90.39
83635;BME280;73596;49.482;11.238;2023-11-21T10:39:48;97684.63;;;8.06;90.44
83635;BME280;73596;49.482;11.238;2023-11-21T10:42:14;97681.44;;;8.15;90.93
83635;BME280;73596;49.482;11.238;2023-11-21T10:44:41;97684.31;;;8.23;90.60
83635;BME280;73596;49.482;11.238;2023-11-21T10:47:09;97682.69;;;8.35;90.32
83635;BME280;73596;49.482;11.238;2023-11-21T10:49:37;97685.56;;;8.43;90.56
83635;BME280;73596;49.482;11.238;2023-11-21T10:52:03;97686.88;;;8.49;90.25
83635;BME280;73596;49.482;11.238;2023-11-21T10:54:29;97689.97;;;8.54;89.52
83635;BME280;73596;49.482;11.238;2023-11-21T10:56:58;97689.44;;;8.61;88.27
83635;BME280;73596;49.482;11.238;2023-11-21T10:59:28;97694.38;;;8.64;87.73
83635;BME280;73596;49.482;11.238;2023-11-21T11:01:54;97695.41;;;8.62;87.85
83635;BME280;73596;49.482;11.238;2023-11-21T11:04:22;97695.22;;;8.65;88.04
83635;BME280;73596;49.482;11.238;2023-11-21T11:06:55;97692.19;;;8.71;86.54
83635;BME280;73596;49.482;11.238;2023-11-21T11:09:22;97686.66;;;8.64;86.45
83635;BME280;73596;49.482;11.238;2023-11-21T11:11:51;97692.13;;;8.60;86.52
83635;BME280;73596;49.482;11.238;2023-11-21T11:14:19;97700.06;;;8.57;86.65
83635;BME280;73596;49.482;11.238;2023-11-21T11:16:45;97694.09;;;8.56;87.39
83635;BME280;73596;49.482;11.238;2023-11-21T11:19:10;97700.06;;;8.57;87.46
83635;BME280;73596;49.482;11.238;2023-11-21T11:24:41;97695.22;;;8.65;87.33
83635;BME280;73596;49.482;11.238;2023-11-21T11:32:51;97694.47;;;8.63;87.55
83635;BME280;73596;49.482;11.238;2023-11-21T11:35:50;97689.31;;;8.63;88.28
83635;BME280;73596;49.482;11.238;2023-11-21T11:38:21;97694.72;;;8.60;87.46
83635;BME280;73596;49.482;11.238;2023-11-21T11:40:47;97698.19;;;8.59;87.46
83635;BME280;73596;49.482;11.238;2023-11-21T11:43:13;97700.97;;;8.56;88.03
83635;BME280;73596;49.482;11.238;2023-11-21T11:45:39;97699.56;;;8.52;86.91
83635;BME280;73596;49.482;11.238;2023-11-21T11:48:08;97699.56;;;8.52;87.49
83635;BME280;73596;49.482;11.238;2023-11-21T11:50:33;97698.84;;;8.50;87.97
83635;BME280;73596;49.482;11.238;2023-11-21T11:53:12;97691.00;;;8.51;87.86
83635;BME280;73596;49.482;11.238;2023-11-21T11:55:38;97695.25;;;8.52;88.18
83635;BME280;73596;49.482;11.238;2023-11-21T11:58:05;97695.13;;;8.54;88.45
83635;BME280;73596;49.482;11.238;2023-11-21T12:00:35;97697.38;;;8.58;88.19
83635;BME280;73596;49.482;11.238;2023-11-21T12:03:03;97710.16;;;8.60;88.18
83635;BME280;73596;49.482;11.238;2023-11-21T12:05:31;97709.41;;;8.58;88.12
83635;BME280;73596;49.482;11.238;2023-11-21T12:08:00;97710.16;;;8.60;88.57
83635;BME280;73596;49.482;11.238;2023-11-21T12:10:27;97711.19;;;8.57;88.13
83635;BME280;73596;49.482;11.238;2023-11-21T12:12:58;97708.81;;;8.54;87.76
83635;BME280;73596;49.482;11.238;2023-11-21T12:15:24;97705.41;;;8.54;88.29
83635;BME280;73596;49.482;11.238;2023-11-21T12:17:51;97707.16;;;8.53;88.20
83635;BME280;73596;49.482;11.238;2023-11-21T12:20:24;97711.41;;;8.54;87.53
83635;BME280;73596;49.482;11.238;2023-11-21T12:22:52;97711.41;;;8.54;88.26
83635;BME280;73596;49.482;11.238;2023-11-21T12:25:19;97713.03;;;8.55;88.19
83635;BME280;73596;49.482;11.238;2023-11-21T12:27:50;97711.47;;;8.53;88.63
83635;BME280;73596;49.482;11.238;2023-11-21T12:30:26;97706.97;;;8.56;88.77
83635;BME280;73596;49.482;11.238;2023-11-21T12:33:00;97708.69;;;8.56;88.74
83635;BME280;73596;49.482;11.238;2023-11-21T12:35:30;97724.66;;;8.61;88.05
83635;BME280;73596;49.482;11.238;2023-11-21T12:37:59;97720.44;;;8.60;87.57
83635;BME280;73596;49.482;11.238;2023-11-21T12:40:24;97719.50;;;8.61;87.98
83635;BME280;73596;49.482;11.238;2023-11-21T12:42:55;97718.59;;;8.62;88.13
83635;BME280;73596;49.482;11.238;2023-11-21T12:45:25;97724.31;;;8.65;87.81
83635;BME280;73596;49.482;11.238;2023-11-21T12:47:55;97731.03;;;8.68;88.02
83635;BME280;73596;49.482;11.238;2023-11-21T12:50:23;97731.84;;;8.68;87.43
83635;BME280;73596;49.482;11.238;2023-11-21T12:52:51;97729.19;;;8.70;87.81
83635;BME280;73596;49.482;11.238;2023-11-21T12:55:20;97734.22;;;8.71;86.93
83635;BME280;73596;49.482;11.238;2023-11-21T12:57:51;97737.50;;;8.73;87.22
83635;BME280;73596;49.482;11.238;2023-11-21T13:00:17;97738.84;;;8.79;87.69
83635;BME280;73596;49.482;11.238;2023-11-21T13:02:54;97738.22;;;8.75;87.15
83635;BME280;73596;49.482;11.238;2023-11-21T13:05:28;97740.78;;;8.75;87.59